Time,TemperatureF,DewpointF,PressureIn,WindDirection,WindDirectionDegrees,WindSpeedMPH,WindSpeedGustMPH,Humidity,HourlyPrecipIn,Conditions,Clouds,dailyrainin,SoftwareType,DateUTC
2013-03-16 00:06:00,27.3,19.2,29.58,North,0,2.7,-999.0,71,-99.99,,,0.00,Acu-Link.com,2013-03-16 04:06:00,
2013-03-16 00:22:00,27.1,18.6,29.56,North,0,2.7,-999.0,70,-99.99,,,0.00,Acu-Link.com,2013-03-16 04:22:00,
2013-03-16 00:37:00,26.8,17.3,29.57,West,270,4.2,-999.0,67,-99.99,,,0.00,Acu-Link.com,2013-03-16 04:37:00,
2013-03-16 00:52:00,26.6,17.1,29.57,WNW,292,2.7,-999.0,67,-99.99,,,0.00,Acu-Link.com,2013-03-16 04:52:00,
2013-03-16 01:07:00,26.1,16.3,29.59,NNW,337,2.2,-999.0,66,-99.99,,,0.00,Acu-Link.com,2013-03-16 05:07:00,
2013-03-16 01:23:00,25.7,15.9,29.59,ENE,67,3.2,-999.0,66,-99.99,,,0.00,Acu-Link.com,2013-03-16 05:23:00,
2013-03-16 01:38:00,25.5,15.4,29.61,WNW,292,2.7,-999.0,65,-99.99,,,0.00,Acu-Link.com,2013-03-16 05:38:00,
2013-03-16 01:53:00,25.5,15.7,29.60,NNW,337,1.7,-999.0,66,-99.99,,,0.00,Acu-Link.com,2013-03-16 05:53:00,
2013-03-16 02:09:00,25.3,16.2,29.60,WNW,292,0.0,-999.0,68,-99.99,,,0.00,Acu-Link.com,2013-03-16 06:09:00,
2013-03-16 02:24:00,25.3,16.6,29.61,NNE,22,0.0,-999.0,69,-99.99,,,0.00,Acu-Link.com,2013-03-16 06:24:00,
2013-03-16 02:39:00,25.3,16.6,29.62,WNW,292,3.7,-999.0,69,-99.99,,,0.00,Acu-Link.com,2013-03-16 06:39:00,
2013-03-16 02:54:00,25.2,17.5,29.61,NW,315,0.0,-999.0,72,-99.99,,,0.00,Acu-Link.com,2013-03-16 06:54:00,
2013-03-16 03:09:00,25.2,17.1,29.61,NNW,337,0.0,-999.0,71,-99.99,,,0.00,Acu-Link.com,2013-03-16 07:09:00,
2013-03-16 03:25:00,25.2,17.8,29.62,WNW,292,0.0,-999.0,73,-99.99,,,0.00,Acu-Link.com,2013-03-16 07:25:00,
2013-03-16 03:40:00,25.0,16.6,29.62,North,0,0.0,-999.0,70,-99.99,,,0.00,Acu-Link.com,2013-03-16 07:40:00,
2013-03-16 03:55:00,25.0,16.6,29.63,North,0,0.0,-999.0,70,-99.99,,,0.00,Acu-Link.com,2013-03-16 07:55:00,
2013-03-16 04:11:00,25.0,17.6,29.63,NW,315,0.0,-999.0,73,-99.99,,,0.00,Acu-Link.com,2013-03-16 08:11:00,
2013-03-16 04:26:00,24.8,17.7,29.62,East,90,0.0,-999.0,74,-99.99,,,0.00,Acu-Link.com,2013-03-16 08:26:00,
2013-03-16 04:41:00,24.3,19.3,29.63,WNW,292,1.7,-999.0,81,-99.99,,,0.00,Acu-Link.com,2013-03-16 08:41:00,
2013-03-16 05:11:00,24.3,19.0,29.64,WNW,292,2.7,-999.0,80,-99.99,,,0.00,Acu-Link.com,2013-03-16 09:11:00,
2013-03-16 05:26:00,23.5,19.9,29.65,NNW,337,2.2,-999.0,86,-99.99,,,0.00,Acu-Link.com,2013-03-16 09:26:00,
2013-03-16 05:42:00,23.4,17.9,29.65,NW,315,1.7,-999.0,79,-99.99,,,0.00,Acu-Link.com,2013-03-16 09:42:00,
2013-03-16 05:57:00,23.4,17.6,29.65,WNW,292,0.0,-999.0,78,-99.99,,,0.00,Acu-Link.com,2013-03-16 09:57:00,
2013-03-16 06:12:00,23.2,17.4,29.66,SW,225,0.0,-999.0,78,-99.99,,,0.00,Acu-Link.com,2013-03-16 10:12:00,
2013-03-16 06:27:00,22.8,18.4,29.68,ESE,112,0.0,-999.0,83,-99.99,,,0.00,Acu-Link.com,2013-03-16 10:27:00,
2013-03-16 06:43:00,22.3,18.5,29.68,NW,315,1.7,-999.0,85,-99.99,,,0.00,Acu-Link.com,2013-03-16 10:43:00,
2013-03-16 06:58:00,22.1,14.5,29.68,WNW,292,0.0,-999.0,72,-99.99,,,0.00,Acu-Link.com,2013-03-16 10:58:00,
2013-03-16 07:13:00,22.3,13.7,29.69,NW,315,1.7,-999.0,69,-99.99,,,0.00,Acu-Link.com,2013-03-16 11:13:00,
2013-03-16 07:28:00,22.5,12.9,29.70,ESE,112,0.0,-999.0,66,-99.99,,,0.00,Acu-Link.com,2013-03-16 11:28:00,
2013-03-16 07:44:00,22.5,13.6,29.70,WNW,292,0.0,-999.0,68,-99.99,,,0.00,Acu-Link.com,2013-03-16 11:44:00,
2013-03-16 07:59:00,23.0,13.4,29.70,NW,315,0.0,-999.0,66,-99.99,,,0.00,Acu-Link.com,2013-03-16 11:59:00,
2013-03-16 08:14:00,24.1,13.4,29.72,NNE,22,0.0,-999.0,63,-99.99,,,0.00,Acu-Link.com,2013-03-16 12:14:00,
2013-03-16 08:30:00,24.3,13.5,29.71,West,270,0.0,-999.0,63,-99.99,,,0.00,Acu-Link.com,2013-03-16 12:30:00,
2013-03-16 08:45:00,23.4,13.4,29.72,ESE,112,0.0,-999.0,65,-99.99,,,0.00,Acu-Link.com,2013-03-16 12:45:00,
2013-03-16 09:00:00,24.3,13.9,29.72,NW,315,1.7,-999.0,64,-99.99,,,0.00,Acu-Link.com,2013-03-16 13:00:00,
2013-03-16 09:31:00,25.0,13.5,29.72,NW,315,1.7,-999.0,61,-99.99,,,0.00,Acu-Link.com,2013-03-16 13:31:00,
2013-03-16 09:46:00,25.0,12.7,29.72,NW,315,2.2,-999.0,59,-99.99,,,0.00,Acu-Link.com,2013-03-16 13:46:00,
2013-03-16 10:02:00,25.5,12.4,29.71,East,90,0.0,-999.0,57,-99.99,,,0.00,Acu-Link.com,2013-03-16 14:02:00,
2013-03-16 10:17:00,26.1,13.0,29.72,West,270,0.0,-999.0,57,-99.99,,,0.00,Acu-Link.com,2013-03-16 14:17:00,
2013-03-16 10:32:00,29.5,14.5,29.72,NE,45,0.0,-999.0,53,-99.99,,,0.00,Acu-Link.com,2013-03-16 14:32:00,
2013-03-16 10:47:00,27.9,13.0,29.71,WNW,292,1.1,-999.0,53,-99.99,,,0.00,Acu-Link.com,2013-03-16 14:47:00,
2013-03-16 11:02:00,29.1,14.1,29.71,SE,135,1.7,-999.0,53,-99.99,,,0.00,Acu-Link.com,2013-03-16 15:02:00,
2013-03-16 11:18:00,30.0,15.0,29.71,NNE,22,2.2,-999.0,53,-99.99,,,0.00,Acu-Link.com,2013-03-16 15:18:00,
2013-03-16 11:33:00,29.7,14.7,29.71,WNW,292,1.7,-999.0,53,-99.99,,,0.00,Acu-Link.com,2013-03-16 15:33:00,
2013-03-16 11:49:00,31.1,14.7,29.71,South,180,2.2,-999.0,50,-99.99,,,0.00,Acu-Link.com,2013-03-16 15:49:00,
2013-03-16 12:04:00,30.0,13.6,29.71,WNW,292,2.7,-999.0,50,-99.99,,,0.00,Acu-Link.com,2013-03-16 16:04:00,
2013-03-16 12:19:00,29.3,13.4,29.71,WNW,292,2.7,-999.0,51,-99.99,,,0.00,Acu-Link.com,2013-03-16 16:19:00,
2013-03-16 12:34:00,29.3,13.9,29.70,NNW,337,2.2,-999.0,52,-99.99,,,0.00,Acu-Link.com,2013-03-16 16:34:00,
2013-03-16 13:06:00,30.0,13.6,29.70,SW,225,2.7,-999.0,50,-99.99,,,0.00,Acu-Link.com,2013-03-16 17:06:00,
2013-03-16 13:23:00,30.7,15.6,29.70,SE,135,2.7,-999.0,53,-99.99,,,0.00,Acu-Link.com,2013-03-16 17:23:00,
2013-03-16 13:39:00,31.6,14.2,29.70,West,270,1.7,-999.0,48,-99.99,,,0.00,Acu-Link.com,2013-03-16 17:39:00,
2013-03-16 13:54:00,30.4,14.5,29.70,WNW,292,2.2,-999.0,51,-99.99,,,0.00,Acu-Link.com,2013-03-16 17:54:00,
2013-03-16 14:10:00,30.2,15.6,29.69,NW,315,3.2,-999.0,54,-99.99,,,0.00,Acu-Link.com,2013-03-16 18:10:00,
2013-03-16 14:25:00,29.3,14.3,29.69,NW,315,2.2,-999.0,53,-99.99,,,0.00,Acu-Link.com,2013-03-16 18:25:00,
2013-03-16 14:40:00,29.5,13.2,29.69,NW,315,1.7,-999.0,50,-99.99,,,0.00,Acu-Link.com,2013-03-16 18:40:00,
2013-03-16 14:55:00,29.7,13.4,29.69,NNE,22,2.2,-999.0,50,-99.99,,,0.00,Acu-Link.com,2013-03-16 18:55:00,
2013-03-16 15:26:00,31.1,15.6,29.70,WNW,292,0.0,-999.0,52,-99.99,,,0.00,Acu-Link.com,2013-03-16 19:26:00,
2013-03-16 15:42:00,29.3,14.3,29.71,WNW,292,2.7,-999.0,53,-99.99,,,0.00,Acu-Link.com,2013-03-16 19:42:00,
2013-03-16 15:57:00,28.6,12.8,29.71,NW,315,2.7,-999.0,51,-99.99,,,0.00,Acu-Link.com,2013-03-16 19:57:00,
2013-03-16 16:12:00,28.6,14.1,29.71,West,270,2.2,-999.0,54,-99.99,,,0.00,Acu-Link.com,2013-03-16 20:12:00,
2013-03-16 16:28:00,28.2,12.4,29.70,West,270,2.7,-999.0,51,-99.99,,,0.00,Acu-Link.com,2013-03-16 20:28:00,
2013-03-16 16:43:00,28.0,12.2,29.71,West,270,1.1,-999.0,51,-99.99,,,0.00,Acu-Link.com,2013-03-16 20:43:00,
2013-03-16 16:58:00,28.0,13.5,29.70,WSW,247,2.7,-999.0,54,-99.99,,,0.00,Acu-Link.com,2013-03-16 20:58:00,
2013-03-16 17:13:00,27.7,12.4,29.69,WNW,292,1.1,-999.0,52,-99.99,,,0.00,Acu-Link.com,2013-03-16 21:13:00,
2013-03-16 17:28:00,27.7,14.5,29.69,NNE,22,0.0,-999.0,57,-99.99,,,0.00,Acu-Link.com,2013-03-16 21:28:00,
2013-03-16 17:44:00,27.5,13.1,29.68,North,0,1.7,-999.0,54,-99.99,,,0.00,Acu-Link.com,2013-03-16 21:44:00,
2013-03-16 17:59:00,27.1,13.1,29.69,WNW,292,2.2,-999.0,55,-99.99,,,0.00,Acu-Link.com,2013-03-16 21:59:00,
2013-03-16 18:14:00,26.8,14.0,29.69,NW,315,2.2,-999.0,58,-99.99,,,0.00,Acu-Link.com,2013-03-16 22:14:00,
2013-03-16 18:30:00,26.6,12.2,29.71,NNW,337,2.7,-999.0,54,-99.99,,,0.00,Acu-Link.com,2013-03-16 22:30:00,
2013-03-16 18:45:00,26.1,12.6,29.71,WNW,292,2.7,-999.0,56,-99.99,,,0.00,Acu-Link.com,2013-03-16 22:45:00,
2013-03-16 19:00:00,25.9,12.8,29.70,NE,45,2.2,-999.0,57,-99.99,,,0.00,Acu-Link.com,2013-03-16 23:00:00,
2013-03-16 19:16:00,25.7,12.6,29.71,NNE,22,2.2,-999.0,57,-99.99,,,0.00,Acu-Link.com,2013-03-16 23:16:00,
2013-03-16 19:31:00,25.5,12.4,29.71,NW,315,3.2,-999.0,57,-99.99,,,0.00,Acu-Link.com,2013-03-16 23:31:00,
2013-03-16 20:01:00,25.5,12.8,29.73,NNW,337,2.7,-999.0,58,-99.99,,,0.00,Acu-Link.com,2013-03-17 00:01:00,
2013-03-16 20:16:00,25.5,12.8,29.74,WNW,292,2.7,-999.0,58,-99.99,,,0.00,Acu-Link.com,2013-03-17 00:16:00,
2013-03-16 20:32:00,25.3,13.8,29.74,NW,315,2.2,-999.0,61,-99.99,,,0.00,Acu-Link.com,2013-03-17 00:32:00,
2013-03-16 20:47:00,25.3,12.6,29.75,SW,225,0.0,-999.0,58,-99.99,,,0.00,Acu-Link.com,2013-03-17 00:47:00,
2013-03-16 21:02:00,25.2,13.3,29.75,ESE,112,0.0,-999.0,60,-99.99,,,0.00,Acu-Link.com,2013-03-17 01:02:00,
2013-03-16 21:18:00,25.0,13.1,29.75,WNW,292,1.7,-999.0,60,-99.99,,,0.00,Acu-Link.com,2013-03-17 01:18:00,
2013-03-16 21:33:00,24.8,12.5,29.76,WNW,292,1.1,-999.0,59,-99.99,,,0.00,Acu-Link.com,2013-03-17 01:33:00,
2013-03-16 21:49:00,24.8,12.5,29.76,North,0,1.1,-999.0,59,-99.99,,,0.00,Acu-Link.com,2013-03-17 01:49:00,
2013-03-16 22:04:00,24.6,12.3,29.77,WNW,292,0.0,-999.0,59,-99.99,,,0.00,Acu-Link.com,2013-03-17 02:04:00,
2013-03-16 22:19:00,24.3,12.1,29.76,West,270,1.7,-999.0,59,-99.99,,,0.00,Acu-Link.com,2013-03-17 02:19:00,
2013-03-16 22:34:00,23.7,11.5,29.77,SSE,157,0.0,-999.0,59,-99.99,,,0.00,Acu-Link.com,2013-03-17 02:34:00,
2013-03-16 22:49:00,23.4,11.2,29.76,NNW,337,3.7,-999.0,59,-99.99,,,0.00,Acu-Link.com,2013-03-17 02:49:00,
2013-03-16 23:05:00,23.2,11.4,29.78,WNW,292,0.0,-999.0,60,-99.99,,,0.00,Acu-Link.com,2013-03-17 03:05:00,
2013-03-16 23:20:00,22.8,12.1,29.78,WNW,292,0.0,-999.0,63,-99.99,,,0.00,Acu-Link.com,2013-03-17 03:20:00,
2013-03-16 23:35:00,22.8,11.8,29.79,WNW,292,0.0,-999.0,62,-99.99,,,0.00,Acu-Link.com,2013-03-17 03:35:00,
2013-03-16 23:50:00,22.6,11.9,29.78,SW,225,0.0,-999.0,63,-99.99,,,0.00,Acu-Link.com,2013-03-17 03:50:00,